createdAt,value
2022-07-26T00:00:53.035Z,36.14
2022-07-26T00:03:20.480Z,36.32
2022-07-26T00:05:47.904Z,36.39
2022-07-26T00:08:15.277Z,36.54
2022-07-26T00:10:47.853Z,35.97
2022-07-26T00:13:15.922Z,35.99
2022-07-26T00:15:45.646Z,35.44
2022-07-26T00:18:13.656Z,35.88
2022-07-26T00:20:41.523Z,35.31
2022-07-26T00:23:09.007Z,35.55
2022-07-26T00:25:36.577Z,36.52
2022-07-26T00:28:04.040Z,36.48
2022-07-26T00:30:31.659Z,36.39
2022-07-26T00:33:00.532Z,36.53
2022-07-26T00:35:27.978Z,36.51
2022-07-26T00:37:55.364Z,36.74
2022-07-26T00:40:22.816Z,36.73
2022-07-26T00:42:50.305Z,36.75
2022-07-26T00:45:18.088Z,36.48
2022-07-26T00:47:45.868Z,36.43
2022-07-26T00:50:16.985Z,36.02
2022-07-26T00:52:45.287Z,36.53
2022-07-26T00:55:13.991Z,36.66
2022-07-26T00:57:42.706Z,35.94
2022-07-26T01:00:12.831Z,36.02
2022-07-26T01:02:40.537Z,35.99
2022-07-26T01:05:08.812Z,36.01
2022-07-26T01:07:38.266Z,35.91
2022-07-26T01:10:08.552Z,36.53
2022-07-26T01:12:37.604Z,40.49
2022-07-26T01:15:05.612Z,37.36
2022-07-26T01:17:33.052Z,36.44
2022-07-26T01:20:05.589Z,36.58
2022-07-26T01:22:34.558Z,37.00
2022-07-26T01:25:01.988Z,36.44
2022-07-26T01:27:33.654Z,36.51
2022-07-26T01:30:01.444Z,36.45
2022-07-26T01:32:28.803Z,36.25
2022-07-26T01:34:56.198Z,36.26
2022-07-26T01:37:23.655Z,36.35
2022-07-26T01:39:52.530Z,36.49
2022-07-26T01:42:19.980Z,35.94
2022-07-26T01:44:47.392Z,35.82
2022-07-26T01:47:14.796Z,36.13
2022-07-26T01:49:42.184Z,36.14
2022-07-26T01:52:09.632Z,37.60
2022-07-26T01:54:37.012Z,37.51
2022-07-26T01:57:05.957Z,36.67
2022-07-26T01:59:33.528Z,36.30
2022-07-26T02:02:01.046Z,36.19
2022-07-26T02:04:28.543Z,36.28
2022-07-26T02:06:55.925Z,36.42
2022-07-26T02:09:23.362Z,36.22
2022-07-26T02:11:53.194Z,35.99
2022-07-26T02:14:25.541Z,36.17
2022-07-26T02:16:53.640Z,35.89
2022-07-26T02:19:21.006Z,35.43
2022-07-26T02:21:48.363Z,35.59
2022-07-26T02:24:15.738Z,34.84
2022-07-26T02:26:43.130Z,35.39
2022-07-26T02:29:10.496Z,35.54
2022-07-26T02:31:39.372Z,35.60
2022-07-26T02:34:07.001Z,35.96
2022-07-26T02:36:34.981Z,36.08
2022-07-26T02:39:02.346Z,36.25
2022-07-26T02:41:29.728Z,36.22
2022-07-26T02:43:57.180Z,35.54
2022-07-26T02:46:24.738Z,35.63
2022-07-26T02:48:53.654Z,35.45
2022-07-26T02:51:21.196Z,35.17
2022-07-26T02:53:48.575Z,37.50
2022-07-26T02:56:15.972Z,36.69
2022-07-26T02:58:43.366Z,35.37
2022-07-26T03:01:11.012Z,34.89
2022-07-26T03:03:39.717Z,35.94
2022-07-26T03:06:09.067Z,35.83
2022-07-26T03:08:36.460Z,35.80
2022-07-26T03:11:03.859Z,35.54
2022-07-26T03:13:31.303Z,35.60
2022-07-26T03:15:59.086Z,34.75
2022-07-26T03:18:26.555Z,36.47
2022-07-26T03:20:53.971Z,35.74
2022-07-26T03:23:22.801Z,35.25
2022-07-26T03:25:50.323Z,35.45
2022-07-26T03:28:19.636Z,35.36
2022-07-26T03:30:46.905Z,34.97
2022-07-26T03:33:14.341Z,35.69
2022-07-26T03:35:41.717Z,35.83
2022-07-26T03:38:09.277Z,35.78
2022-07-26T03:40:38.112Z,35.88
2022-07-26T03:43:05.517Z,35.79
2022-07-26T03:45:32.956Z,35.66
2022-07-26T03:48:01.385Z,35.99
2022-07-26T03:50:28.954Z,36.40
2022-07-26T03:52:56.377Z,36.25
2022-07-26T03:55:23.784Z,36.33
2022-07-26T03:57:52.776Z,36.28
2022-07-26T04:00:20.326Z,36.26
2022-07-26T04:02:47.798Z,36.39
2022-07-26T04:05:15.255Z,36.16
2022-07-26T04:07:43.508Z,36.32
2022-07-26T04:10:20.841Z,36.59
2022-07-26T04:12:48.351Z,36.53
2022-07-26T04:15:17.297Z,36.42
2022-07-26T04:17:44.888Z,36.54
2022-07-26T04:20:12.827Z,36.85
2022-07-26T04:22:40.850Z,36.59
2022-07-26T04:25:10.128Z,36.84
2022-07-26T04:27:38.149Z,36.64
2022-07-26T04:30:09.566Z,36.74
2022-07-26T04:32:41.474Z,37.00
2022-07-26T04:35:09.537Z,36.96
2022-07-26T04:37:40.973Z,36.84
2022-07-26T04:40:09.875Z,36.70
2022-07-26T04:42:37.361Z,37.07
2022-07-26T04:45:08.259Z,36.75
2022-07-26T04:47:36.153Z,36.48
2022-07-26T04:50:06.490Z,36.61
2022-07-26T04:52:33.984Z,36.25
2022-07-26T04:55:01.436Z,36.58
2022-07-26T04:57:28.892Z,36.82
2022-07-26T05:00:16.690Z,36.34
2022-07-26T05:02:43.670Z,36.46
2022-07-26T05:05:12.547Z,36.48
2022-07-26T05:07:41.182Z,36.70
2022-07-26T05:10:10.127Z,36.62
2022-07-26T05:12:38.107Z,36.64
2022-07-26T05:15:07.227Z,36.50
2022-07-26T05:17:42.569Z,36.61
2022-07-26T05:20:15.152Z,36.71
2022-07-26T05:22:43.393Z,37.09
2022-07-26T05:25:10.801Z,37.10
2022-07-26T05:27:38.361Z,36.88
2022-07-26T05:30:06.619Z,36.54
2022-07-26T05:32:33.989Z,36.56
2022-07-26T05:35:01.383Z,36.79
2022-07-26T05:37:30.273Z,36.92
2022-07-26T05:39:57.850Z,36.70
2022-07-26T05:42:25.276Z,36.92
2022-07-26T05:44:52.680Z,36.79
2022-07-26T05:47:20.124Z,36.50
2022-07-26T05:49:47.581Z,37.06
2022-07-26T05:52:14.975Z,37.07
2022-07-26T05:54:43.813Z,36.89
2022-07-26T05:57:11.241Z,37.05
2022-07-26T05:59:38.633Z,37.36
2022-07-26T06:02:06.105Z,36.83
2022-07-26T06:04:34.182Z,37.07
2022-07-26T06:07:01.699Z,37.04
2022-07-26T06:09:29.105Z,37.33
2022-07-26T06:11:57.996Z,36.63
2022-07-26T06:14:25.670Z,37.14
2022-07-26T06:16:53.122Z,37.37
2022-07-26T06:19:20.508Z,37.33
2022-07-26T06:21:47.964Z,36.47
2022-07-26T06:24:15.340Z,37.31
2022-07-26T06:26:42.779Z,36.98
2022-07-26T06:29:11.689Z,37.11
2022-07-26T06:31:39.098Z,37.98
2022-07-26T06:34:06.768Z,36.98
2022-07-26T06:36:37.356Z,36.73
2022-07-26T06:39:04.953Z,36.66
2022-07-26T06:41:32.403Z,36.63
2022-07-26T06:43:59.823Z,37.00
2022-07-26T06:46:28.744Z,36.79
2022-07-26T06:48:56.908Z,36.47
2022-07-26T06:51:24.707Z,37.46
2022-07-26T06:53:52.112Z,37.01
2022-07-26T06:56:19.802Z,36.62
2022-07-26T06:58:47.325Z,36.89
2022-07-26T07:01:51.607Z,36.27
2022-07-26T07:04:04.562Z,36.09
2022-07-26T07:06:32.127Z,36.46
2022-07-26T07:08:59.533Z,36.23
2022-07-26T07:11:27.015Z,35.97
2022-07-26T07:13:55.689Z,36.17
2022-07-26T07:16:23.163Z,36.42
2022-07-26T07:18:50.579Z,35.58
2022-07-26T07:21:19.367Z,36.12
2022-07-26T07:23:46.765Z,35.84
2022-07-26T07:26:14.190Z,36.77
2022-07-26T07:28:41.587Z,37.01
2022-07-26T07:31:09.341Z,35.61
2022-07-26T07:33:53.073Z,35.65
2022-07-26T07:36:22.834Z,36.35
2022-07-26T07:38:50.215Z,35.97
2022-07-26T07:41:19.227Z,35.77
2022-07-26T07:43:46.672Z,36.41
2022-07-26T07:46:14.164Z,36.28
2022-07-26T07:48:46.782Z,37.25
2022-07-26T07:51:14.653Z,38.01
2022-07-26T07:53:43.517Z,39.67
2022-07-26T07:56:24.479Z,40.85
2022-07-26T07:58:52.220Z,41.10
2022-07-26T08:01:20.050Z,41.01
2022-07-26T08:03:57.387Z,40.74
2022-07-26T08:06:30.770Z,40.62
2022-07-26T08:09:03.841Z,40.89
2022-07-26T08:11:34.306Z,40.52
2022-07-26T08:14:02.439Z,40.75
2022-07-26T08:16:29.985Z,40.32
2022-07-26T08:18:58.492Z,40.55
2022-07-26T08:21:28.906Z,39.51
2022-07-26T08:23:57.449Z,40.01
2022-07-26T08:26:26.324Z,39.68
2022-07-26T08:28:59.459Z,39.86
2022-07-26T08:31:27.702Z,39.34
2022-07-26T08:33:55.583Z,39.24
2022-07-26T08:36:23.343Z,39.15
2022-07-26T08:38:51.009Z,39.25
2022-07-26T08:41:18.703Z,39.52
2022-07-26T08:43:52.955Z,39.02
2022-07-26T08:46:25.231Z,39.27
2022-07-26T08:48:53.228Z,39.00
2022-07-26T08:51:23.619Z,38.46
2022-07-26T08:53:52.649Z,38.33
2022-07-26T08:56:20.019Z,38.42
2022-07-26T08:58:48.892Z,37.99
2022-07-26T09:01:16.436Z,37.89
2022-07-26T09:03:44.945Z,37.72
2022-07-26T09:06:17.769Z,37.00
2022-07-26T09:08:47.789Z,36.92
2022-07-26T09:11:32.514Z,37.00
2022-07-26T09:14:03.334Z,40.08
2022-07-26T09:16:33.259Z,41.49
2022-07-26T09:19:16.732Z,43.80
2022-07-26T09:21:44.141Z,43.23
2022-07-26T09:24:11.549Z,43.19
2022-07-26T09:26:38.971Z,43.53
2022-07-26T09:29:10.455Z,44.87
2022-07-26T09:31:39.629Z,44.70
2022-07-26T09:34:08.271Z,44.32
2022-07-26T09:36:51.049Z,44.70
2022-07-26T09:39:32.770Z,45.57
2022-07-26T09:42:26.861Z,46.21
2022-07-26T09:44:57.017Z,47.03
2022-07-26T09:47:36.246Z,46.78
2022-07-26T09:50:14.719Z,47.16
2022-07-26T09:53:01.289Z,48.11
2022-07-26T09:55:39.273Z,49.03
2022-07-26T09:58:13.148Z,48.15
2022-07-26T10:00:42.444Z,49.09
2022-07-26T10:03:09.928Z,49.43
2022-07-26T10:05:37.778Z,48.15
2022-07-26T10:08:06.600Z,46.78
2022-07-26T10:10:40.093Z,45.80
2022-07-26T10:13:08.739Z,46.46
2022-07-26T10:15:38.543Z,45.69
2022-07-26T10:18:08.600Z,45.97
2022-07-26T10:20:41.548Z,45.29
2022-07-26T10:23:40.653Z,45.32
2022-07-26T10:26:10.744Z,45.16
2022-07-26T10:28:40.305Z,44.30
2022-07-26T10:31:28.735Z,43.67
2022-07-26T10:33:59.437Z,43.92
2022-07-26T10:36:35.296Z,44.02
2022-07-26T10:39:09.220Z,43.29
2022-07-26T10:41:42.180Z,42.95
2022-07-26T10:44:21.973Z,43.08
2022-07-26T10:47:11.988Z,42.73
2022-07-26T10:49:42.808Z,43.16
2022-07-26T10:52:16.653Z,43.03
2022-07-26T10:55:14.099Z,42.93
2022-07-26T10:57:42.774Z,42.21
2022-07-26T11:00:14.163Z,42.43
2022-07-26T11:02:42.441Z,42.00
2022-07-26T11:05:14.302Z,42.14
2022-07-26T11:07:54.623Z,42.03
2022-07-26T11:10:27.931Z,41.84
2022-07-26T11:13:07.780Z,41.98
2022-07-26T11:15:36.635Z,41.89
2022-07-26T11:18:08.559Z,41.68
2022-07-26T11:20:37.647Z,41.80
2022-07-26T11:23:19.255Z,41.42
2022-07-26T11:26:03.596Z,41.52
2022-07-26T11:28:42.424Z,40.89
2022-07-26T11:31:10.001Z,41.04
2022-07-26T11:33:38.371Z,40.49
2022-07-26T11:36:08.051Z,40.39
2022-07-26T11:38:46.197Z,40.67
2022-07-26T11:41:15.676Z,40.30
2022-07-26T11:43:42.892Z,39.93
2022-07-26T11:46:10.465Z,39.69
2022-07-26T11:48:46.237Z,39.57
2022-07-26T11:51:17.576Z,39.66
2022-07-26T11:53:45.977Z,39.45
2022-07-26T11:56:15.931Z,39.52
2022-07-26T11:58:44.879Z,38.96
2022-07-26T12:01:14.623Z,39.08
2022-07-26T12:03:43.761Z,39.57
2022-07-26T12:06:14.742Z,39.59
2022-07-26T12:08:44.482Z,40.28
2022-07-26T12:11:13.027Z,40.71
2022-07-26T12:13:56.248Z,40.62
2022-07-26T12:16:44.278Z,41.05
2022-07-26T12:19:26.549Z,40.87
2022-07-26T12:21:57.865Z,41.08
2022-07-26T12:24:39.485Z,41.53
2022-07-26T12:27:08.928Z,41.47
2022-07-26T12:29:36.932Z,42.18
2022-07-26T12:32:12.140Z,42.86
2022-07-26T12:34:41.945Z,42.05
2022-07-26T12:37:13.426Z,42.35
2022-07-26T12:39:41.959Z,42.04
2022-07-26T12:42:33.565Z,41.96
2022-07-26T12:45:03.909Z,42.84
2022-07-26T12:47:31.399Z,43.23
2022-07-26T12:49:58.803Z,43.41
2022-07-26T12:52:27.660Z,43.82
2022-07-26T12:54:55.106Z,43.26
2022-07-26T12:57:23.011Z,43.40
2022-07-26T12:59:50.579Z,43.11
2022-07-26T13:02:18.412Z,43.14
2022-07-26T13:04:46.775Z,43.56
2022-07-26T13:07:14.694Z,43.87
2022-07-26T13:09:44.057Z,44.46
2022-07-26T13:12:12.200Z,44.92
2022-07-26T13:14:41.013Z,44.79
2022-07-26T13:17:09.507Z,45.33
2022-07-26T13:19:37.755Z,44.81
2022-07-26T13:22:06.441Z,44.53
2022-07-26T13:24:35.211Z,44.85
2022-07-26T13:27:05.351Z,45.08
2022-07-26T13:29:33.296Z,44.42
2022-07-26T13:32:01.925Z,44.80
2022-07-26T13:34:34.777Z,44.22
2022-07-26T13:37:08.160Z,44.76
2022-07-26T13:39:36.010Z,45.11
2022-07-26T13:42:05.276Z,45.95
2022-07-26T13:44:32.683Z,45.27
2022-07-26T13:47:00.165Z,45.10
2022-07-26T13:49:27.708Z,45.22
2022-07-26T13:51:55.172Z,44.94
2022-07-26T13:54:24.593Z,44.74
2022-07-26T13:56:52.640Z,46.13
2022-07-26T13:59:21.515Z,46.11
2022-07-26T14:01:49.161Z,46.44
2022-07-26T14:04:17.192Z,45.53
2022-07-26T14:06:44.682Z,45.43
2022-07-26T14:09:13.163Z,46.34
2022-07-26T14:11:41.090Z,45.46
2022-07-26T14:14:09.071Z,46.49
2022-07-26T14:16:38.490Z,46.72
2022-07-26T14:19:06.132Z,47.14
2022-07-26T14:21:38.603Z,47.13
2022-07-26T14:24:14.822Z,46.88
2022-07-26T14:26:44.316Z,47.45
2022-07-26T14:29:14.322Z,46.73
2022-07-26T14:31:43.234Z,47.08
2022-07-26T14:34:10.913Z,47.09
2022-07-26T14:36:38.540Z,46.78
2022-07-26T14:39:05.936Z,46.22
2022-07-26T14:41:36.860Z,46.28
2022-07-26T14:44:04.630Z,46.14
2022-07-26T14:46:32.236Z,45.77
2022-07-26T14:49:01.239Z,46.56
2022-07-26T14:51:28.899Z,46.08
2022-07-26T14:53:56.594Z,47.03
2022-07-26T14:56:23.977Z,46.28
2022-07-26T14:58:51.549Z,46.85
2022-07-26T15:01:19.076Z,47.29
2022-07-26T15:03:46.588Z,47.44
2022-07-26T15:06:15.453Z,47.93
2022-07-26T15:08:42.898Z,47.51
2022-07-26T15:11:10.587Z,47.45
2022-07-26T15:13:37.971Z,46.91
2022-07-26T15:16:06.063Z,46.70
2022-07-26T15:18:33.885Z,47.20
2022-07-26T15:21:01.480Z,46.70
2022-07-26T15:23:31.259Z,46.21
2022-07-26T15:25:58.779Z,46.30
2022-07-26T15:28:26.190Z,46.23
2022-07-26T15:30:53.701Z,46.21
2022-07-26T15:33:21.299Z,45.89
2022-07-26T15:35:48.797Z,46.21
2022-07-26T15:38:16.414Z,46.16
2022-07-26T15:40:45.427Z,46.08
2022-07-26T15:43:20.208Z,45.51
2022-07-26T15:45:50.218Z,45.34
2022-07-26T15:48:22.358Z,45.73
2022-07-26T15:50:50.277Z,45.70
2022-07-26T15:53:17.816Z,46.19
2022-07-26T15:55:46.648Z,46.25
2022-07-26T15:58:14.036Z,46.16
2022-07-26T16:00:42.388Z,46.68
2022-07-26T16:03:11.825Z,46.38
2022-07-26T16:05:39.268Z,46.51
2022-07-26T16:08:07.061Z,46.92
2022-07-26T16:10:34.463Z,46.35
2022-07-26T16:13:04.283Z,46.23
2022-07-26T16:15:32.036Z,46.38
2022-07-26T16:18:04.189Z,47.11
2022-07-26T16:20:34.060Z,46.42
2022-07-26T16:23:02.019Z,47.30
2022-07-26T16:25:30.192Z,46.84
2022-07-26T16:27:57.860Z,46.60
2022-07-26T16:30:33.257Z,46.12
2022-07-26T16:33:00.876Z,46.10
2022-07-26T16:35:28.369Z,46.83
2022-07-26T16:37:56.009Z,46.26
2022-07-26T16:40:23.785Z,46.08
2022-07-26T16:42:51.266Z,45.48
2022-07-26T16:45:18.743Z,45.64
2022-07-26T16:47:47.862Z,46.06
2022-07-26T16:50:27.244Z,45.87
2022-07-26T16:52:55.491Z,45.97
2022-07-26T16:55:22.873Z,45.55
2022-07-26T16:57:50.311Z,45.31
2022-07-26T17:00:18.052Z,45.52
2022-07-26T17:02:47.240Z,45.63
2022-07-26T17:05:14.786Z,45.80
2022-07-26T17:07:42.271Z,45.92
2022-07-26T17:10:10.565Z,45.96
2022-07-26T17:12:38.435Z,45.63
2022-07-26T17:15:07.007Z,46.30
2022-07-26T17:17:34.485Z,46.12
2022-07-26T17:20:04.142Z,46.08
2022-07-26T17:22:31.568Z,45.35
2022-07-26T17:24:58.992Z,45.89
2022-07-26T17:27:26.426Z,46.21
2022-07-26T17:29:54.030Z,45.32
2022-07-26T17:32:21.529Z,45.00
2022-07-26T17:34:48.909Z,44.65
2022-07-26T17:37:17.980Z,45.52
2022-07-26T17:39:52.434Z,45.02
2022-07-26T17:42:21.463Z,45.29
2022-07-26T17:44:49.217Z,45.18
2022-07-26T17:47:28.044Z,44.72
2022-07-26T17:50:14.161Z,45.71
2022-07-26T17:52:49.073Z,45.29
2022-07-26T17:55:17.597Z,46.05
2022-07-26T17:57:45.264Z,46.45
2022-07-26T18:00:14.334Z,46.07
2022-07-26T18:02:41.861Z,45.35
2022-07-26T18:05:10.222Z,45.27
2022-07-26T18:07:38.003Z,44.91
2022-07-26T18:10:08.478Z,44.99
2022-07-26T18:12:35.935Z,45.50
2022-07-26T18:15:03.485Z,44.10
2022-07-26T18:17:31.146Z,44.89
2022-07-26T18:19:58.717Z,44.16
2022-07-26T18:22:26.427Z,46.15
2022-07-26T18:24:53.855Z,44.85
2022-07-26T18:27:22.735Z,44.94
2022-07-26T18:29:50.295Z,45.33
2022-07-26T18:32:18.212Z,44.97
2022-07-26T18:34:51.466Z,44.90
2022-07-26T18:37:20.808Z,45.49
2022-07-26T18:39:48.922Z,45.22
2022-07-26T18:42:18.237Z,45.53
2022-07-26T18:44:47.195Z,45.34
2022-07-26T18:47:14.633Z,45.40
2022-07-26T18:49:42.048Z,45.48
2022-07-26T18:52:10.151Z,45.99
2022-07-26T18:54:37.922Z,45.79
2022-07-26T18:57:05.435Z,46.13
2022-07-26T18:59:33.071Z,45.49
2022-07-26T19:02:02.094Z,44.86
2022-07-26T19:04:29.623Z,45.62
2022-07-26T19:06:57.131Z,46.92
2022-07-26T19:09:24.577Z,45.83
2022-07-26T19:11:51.978Z,45.96
2022-07-26T19:14:19.423Z,45.43
2022-07-26T19:16:46.817Z,44.74
2022-07-26T19:19:16.186Z,44.62
2022-07-26T19:21:43.898Z,44.87
2022-07-26T19:24:11.296Z,44.25
2022-07-26T19:26:38.731Z,44.28
2022-07-26T19:29:06.189Z,43.94
2022-07-26T19:31:33.878Z,43.92
2022-07-26T19:34:01.266Z,44.41
2022-07-26T19:36:30.170Z,44.32
2022-07-26T19:38:57.574Z,45.03
2022-07-26T19:41:25.176Z,44.32
2022-07-26T19:43:52.561Z,44.61
2022-07-26T19:46:20.000Z,44.98
2022-07-26T19:48:47.463Z,45.75
2022-07-26T19:51:14.969Z,45.31
2022-07-26T19:53:43.784Z,45.33
2022-07-26T19:56:11.127Z,45.59
2022-07-26T19:58:38.496Z,45.41
2022-07-26T20:01:06.200Z,45.77
2022-07-26T20:03:33.702Z,45.32
2022-07-26T20:06:01.119Z,45.08
2022-07-26T20:08:28.496Z,45.74
2022-07-26T20:10:57.339Z,44.00
2022-07-26T20:13:24.695Z,43.55
2022-07-26T20:15:52.135Z,43.96
2022-07-26T20:18:19.610Z,43.61
2022-07-26T20:20:47.078Z,43.02
2022-07-26T20:23:14.499Z,42.63
2022-07-26T20:25:41.885Z,42.72
2022-07-26T20:28:10.744Z,43.25
2022-07-26T20:30:38.283Z,42.33
2022-07-26T20:33:05.731Z,42.59
2022-07-26T20:35:33.207Z,42.41
2022-07-26T20:38:00.832Z,42.44
2022-07-26T20:40:28.552Z,42.43
2022-07-26T20:42:56.311Z,42.52
2022-07-26T20:45:25.287Z,42.38
2022-07-26T20:47:53.419Z,42.80
2022-07-26T20:50:21.611Z,42.67
2022-07-26T20:52:49.461Z,41.89
2022-07-26T20:55:17.535Z,42.44
2022-07-26T20:57:45.092Z,42.15
2022-07-26T21:00:14.401Z,42.69
2022-07-26T21:02:43.633Z,42.40
2022-07-26T21:05:11.248Z,42.61
2022-07-26T21:07:53.436Z,42.85
2022-07-26T21:10:26.289Z,42.08
2022-07-26T21:12:53.884Z,42.59
2022-07-26T21:15:21.331Z,42.40
2022-07-26T21:17:50.187Z,43.17
2022-07-26T21:20:17.596Z,43.13
2022-07-26T21:22:45.020Z,42.68
2022-07-26T21:25:12.483Z,42.84
2022-07-26T21:27:39.993Z,42.90
2022-07-26T21:30:08.917Z,42.61
2022-07-26T21:32:36.448Z,43.30
2022-07-26T21:35:06.347Z,42.84
2022-07-26T21:37:33.900Z,42.86
2022-07-26T21:40:01.385Z,42.78
2022-07-26T21:42:28.869Z,43.20
2022-07-26T21:44:56.270Z,42.88
2022-07-26T21:47:23.695Z,42.96
2022-07-26T21:49:51.092Z,42.86
2022-07-26T21:52:19.939Z,42.42
2022-07-26T21:54:47.340Z,43.14
2022-07-26T21:57:14.767Z,42.90
2022-07-26T21:59:42.157Z,42.75
2022-07-26T22:02:09.680Z,42.82
2022-07-26T22:04:37.149Z,42.60
2022-07-26T22:07:05.762Z,42.44
2022-07-26T22:09:36.057Z,43.21
2022-07-26T22:12:03.563Z,43.55
2022-07-26T22:14:31.037Z,42.65
2022-07-26T22:16:58.564Z,42.71
2022-07-26T22:19:26.067Z,42.83
2022-07-26T22:21:53.485Z,43.11
2022-07-26T22:24:20.933Z,42.38
2022-07-26T22:26:49.829Z,42.64
2022-07-26T22:29:17.286Z,43.08
2022-07-26T22:31:44.781Z,42.82
2022-07-26T22:34:12.325Z,42.24
2022-07-26T22:36:45.026Z,43.08
2022-07-26T22:39:13.648Z,43.00
2022-07-26T22:42:04.946Z,42.40
2022-07-26T22:44:30.269Z,42.72
2022-07-26T22:46:57.688Z,42.02
2022-07-26T22:49:25.143Z,42.79
2022-07-26T22:51:52.581Z,42.34
2022-07-26T22:57:01.140Z,42.55
2022-07-26T22:59:30.045Z,42.18
2022-07-26T23:01:57.429Z,42.73
2022-07-26T23:04:24.832Z,42.68
2022-07-26T23:06:52.373Z,42.44
2022-07-26T23:09:22.455Z,42.97
2022-07-26T23:11:49.960Z,42.47
2022-07-26T23:14:17.394Z,42.87
2022-07-26T23:16:46.319Z,42.54
2022-07-26T23:19:14.151Z,43.14
2022-07-26T23:21:41.882Z,42.99
2022-07-26T23:24:09.651Z,42.49
2022-07-26T23:26:37.078Z,42.31
2022-07-26T23:29:04.644Z,42.89
2022-07-26T23:31:32.133Z,42.52
2022-07-26T23:34:01.102Z,42.49
2022-07-26T23:36:28.832Z,42.63
2022-07-26T23:38:57.450Z,42.72
2022-07-26T23:41:25.716Z,42.84
2022-07-26T23:43:53.779Z,42.89
2022-07-26T23:46:21.897Z,41.98
2022-07-26T23:48:49.931Z,42.06
2022-07-26T23:51:19.228Z,42.67
2022-07-26T23:53:47.179Z,42.65
2022-07-26T23:56:14.848Z,42.25
2022-07-26T23:58:42.344Z,42.61
